Time;durP1;ratioP1;P1;durP2;ratioP2;P2;SDS_P1;SDS_P2;PMS_P1;PMS_P2;Temp;Humidity;BMP_temperature;BMP_pressure;BME280_temperature;BME280_humidity;BME280_pressure;Samples;Min_cycle;Max_cycle;Signal;HPM_P1;HPM_P2
2021/05/27 00:00:12;;;;;;;2.03;1.40;;;;;;;8.85;82.95;100353.81;5063411;28;20020;-80
2021/05/27 00:02:37;;;;;;;4.10;2.20;;;;;;;8.82;83.45;100361.69;5079624;28;20052;-77
2021/05/27 00:05:04;;;;;;;3.78;1.83;;;;;;;8.78;83.27;100362.56;5046292;28;20028;-79
2021/05/27 00:07:30;;;;;;;4.25;1.92;;;;;;;8.82;84.71;100353.84;5081296;28;20028;-80
2021/05/27 00:09:55;;;;;;;2.30;1.65;;;;;;;8.80;84.95;100356.47;5045977;28;20028;-79
2021/05/27 00:12:20;;;;;;;1.92;1.77;;;;;;;8.76;85.04;100357.38;5061372;28;20424;-76
2021/05/27 00:14:48;;;;;;;3.35;1.63;;;;;;;8.72;84.51;100358.31;5077835;28;20031;-81
2021/05/27 00:17:13;;;;;;;5.72;2.15;;;;;;;8.77;84.17;100358.25;5059946;28;20020;-81
2021/05/27 00:19:39;;;;;;;9.48;1.88;;;;;;;8.62;85.54;100357.59;5079047;28;20027;-80
2021/05/27 00:22:04;;;;;;;4.57;2.67;;;;;;;8.77;84.80;100361.72;5061312;28;20024;-76
2021/05/27 00:24:30;;;;;;;2.42;1.70;;;;;;;8.70;84.29;100369.63;5043310;28;20024;-80
2021/05/27 00:26:55;;;;;;;3.33;1.83;;;;;;;8.62;85.37;100357.59;5080840;28;20016;-79
2021/05/27 00:29:21;;;;;;;1.85;1.75;;;;;;;8.60;86.08;100355.88;5061181;28;20020;-78
2021/05/27 00:31:46;;;;;;;4.78;2.00;;;;;;;8.66;84.82;100363.63;5062808;28;20067;-80
2021/05/27 00:34:11;;;;;;;3.22;1.90;;;;;;;8.63;85.43;100374.94;5079900;28;20119;-80
2021/05/27 00:36:36;;;;;;;2.58;1.52;;;;;;;8.76;85.04;100364.34;5062159;28;20074;-77
2021/05/27 00:39:03;;;;;;;2.30;2.00;;;;;;;8.75;84.70;100367.81;5045085;28;20028;-77
2021/05/27 00:41:29;;;;;;;3.42;1.70;;;;;;;8.74;84.18;100373.91;5061866;28;20043;-77
2021/05/27 00:43:54;;;;;;;2.28;1.63;;;;;;;8.77;83.94;100368.69;5045947;28;20055;-79
2021/05/27 00:46:19;;;;;;;2.65;1.40;;;;;;;8.77;84.35;100371.28;5060771;28;20056;-78
2021/05/27 00:49:00;;;;;;;2.67;1.98;;;;;;;8.79;84.60;100364.28;5059704;28;20058;-78
2021/05/27 00:51:29;;;;;;;2.03;1.80;;;;;;;8.70;85.49;100367.91;5061986;28;20313;-79
2021/05/27 00:53:58;;;;;;;3.50;2.30;;;;;;;8.75;84.99;100368.72;5061788;28;20107;-80
2021/05/27 00:56:23;;;;;;;2.33;1.80;;;;;;;8.77;85.48;100369.53;5077124;28;20025;-79
2021/05/27 00:58:49;;;;;;;3.05;2.20;;;;;;;8.71;85.84;100376.56;5058387;28;20035;-81
2021/05/27 01:01:15;;;;;;;3.17;1.98;;;;;;;8.81;85.98;100372.97;5042782;28;20021;-78
2021/05/27 01:03:40;;;;;;;5.93;2.30;;;;;;;8.69;85.22;100373.13;5058571;28;20035;-78
2021/05/27 01:06:05;;;;;;;3.53;2.38;;;;;;;8.68;85.88;100377.47;5058985;28;20020;-79
2021/05/27 01:08:31;;;;;;;2.90;2.25;;;;;;;8.64;86.04;100370.56;5041226;28;20036;-79
2021/05/27 01:10:57;;;;;;;3.30;2.35;;;;;;;8.58;85.87;100371.53;5059523;28;20032;-80
2021/05/27 01:13:24;;;;;;;3.47;3.03;;;;;;;8.50;86.67;100370.75;5058794;28;20020;-81
2021/05/27 01:15:49;;;;;;;4.75;2.80;;;;;;;8.53;86.72;100373.31;5059675;28;20017;-77
2021/05/27 01:18:16;;;;;;;5.43;2.15;;;;;;;8.56;86.99;100369.81;5059577;28;20027;-80
2021/05/27 01:20:43;;;;;;;2.63;2.28;;;;;;;8.56;87.37;100370.69;5057396;28;20420;-77
2021/05/27 01:23:09;;;;;;;1.88;1.77;;;;;;;8.63;86.65;100371.47;5075482;28;20116;-78
2021/05/27 01:25:36;;;;;;;3.80;2.60;;;;;;;8.65;86.96;100371.47;5075954;28;20051;-79
2021/05/27 01:28:02;;;;;;;2.42;1.80;;;;;;;8.57;87.19;100369.78;5057586;28;20022;-78
2021/05/27 01:30:27;;;;;;;1.95;1.85;;;;;;;8.51;87.53;100375.09;5074960;28;20305;-76
2021/05/27 01:32:53;;;;;;;4.05;2.25;;;;;;;8.57;86.95;100369.78;5059398;28;20076;-79
2021/05/27 01:35:24;;;;;;;3.10;2.33;;;;;;;8.42;88.30;100368.22;5058009;28;20561;-77
2021/05/27 01:37:50;;;;;;;3.08;2.28;;;;;;;8.39;89.42;100370.03;5059178;28;20024;-77
2021/05/27 01:40:21;;;;;;;4.32;2.47;;;;;;;8.41;89.68;100378.66;5058967;28;20469;-77
2021/05/27 01:42:46;;;;;;;2.40;2.20;;;;;;;8.43;89.94;100387.31;5078201;28;20028;-78
2021/05/27 01:45:12;;;;;;;5.97;2.08;;;;;;;8.46;90.67;100382.09;5076100;28;20040;-78
2021/05/27 01:47:38;;;;;;;3.05;2.40;;;;;;;8.38;89.67;100383.91;5057988;28;20024;-77
2021/05/27 01:50:04;;;;;;;2.75;2.00;;;;;;;8.37;89.14;100387.38;5042047;28;20036;-78
2021/05/27 01:52:30;;;;;;;6.90;2.25;;;;;;;8.31;89.51;100387.47;5060372;28;20036;-79
2021/05/27 01:54:55;;;;;;;3.58;2.22;;;;;;;8.27;90.33;100382.28;5077629;28;20099;-78
2021/05/27 01:57:20;;;;;;;4.82;1.80;;;;;;;8.32;89.42;100384.84;5060612;28;20028;-78
2021/05/27 01:59:46;;;;;;;3.80;1.80;;;;;;;8.40;89.03;100376.94;5042991;28;20029;-77
2021/05/27 02:02:11;;;;;;;3.40;1.98;;;;;;;8.32;90.31;100378.75;5042324;28;20047;-78
2021/05/27 02:04:36;;;;;;;11.43;2.53;;;;;;;8.13;90.52;100386.78;5057400;28;20075;-78
2021/05/27 02:07:12;;;;;;;2.63;2.38;;;;;;;8.21;91.19;100379.75;5075159;28;20066;-79
2021/05/27 02:09:37;;;;;;;2.45;1.80;;;;;;;8.21;90.93;100381.50;5074920;28;20024;-78
2021/05/27 02:12:03;;;;;;;4.07;2.13;;;;;;;8.11;90.85;100380.72;5056698;28;20040;-77
2021/05/27 02:14:29;;;;;;;3.17;2.20;;;;;;;8.05;91.14;100375.59;5074266;28;20027;-77
2021/05/27 02:16:54;;;;;;;3.10;2.10;;;;;;;8.09;91.46;100382.50;5056606;28;20020;-77
2021/05/27 02:19:20;;;;;;;1.88;1.45;;;;;;;8.12;90.79;100377.25;5060690;28;20016;-79
2021/05/27 02:21:45;;;;;;;4.55;2.22;;;;;;;8.09;90.63;100372.94;5078853;28;20024;-78
2021/05/27 02:24:11;;;;;;;2.58;1.40;;;;;;;8.15;91.43;100372.00;5061624;28;20026;-79
2021/05/27 02:26:36;;;;;;;6.78;2.20;;;;;;;8.00;91.66;100367.84;5079614;28;20032;-79
2021/05/27 02:29:02;;;;;;;4.57;1.95;;;;;;;7.93;91.65;100371.38;5046926;28;20028;-76
2021/05/27 02:31:28;;;;;;;3.17;2.50;;;;;;;7.93;91.98;100374.88;5063952;28;20021;-79
2021/05/27 02:33:54;;;;;;;4.50;2.63;;;;;;;7.92;91.57;100380.94;5080366;28;20032;-78
2021/05/27 02:36:19;;;;;;;3.00;2.15;;;;;;;7.98;91.93;100374.81;5061738;28;20025;-77
2021/05/27 02:38:45;;;;;;;3.53;1.77;;;;;;;7.92;91.27;100370.53;5061693;28;20039;-77
2021/05/27 02:41:10;;;;;;;4.55;2.60;;;;;;;7.93;91.63;100369.66;5060980;28;20357;-80
2021/05/27 02:43:36;;;;;;;6.43;2.58;;;;;;;7.95;91.87;100372.25;5061661;28;20331;-78
2021/05/27 02:46:02;;;;;;;5.85;2.47;;;;;;;7.97;92.10;100378.28;5061593;28;20095;-77
2021/05/27 02:48:28;;;;;;;6.05;2.33;;;;;;;7.88;91.14;100381.84;5044121;28;20332;-79
2021/05/27 02:50:54;;;;;;;3.90;1.67;;;;;;;7.97;91.80;100390.44;5077961;28;20028;-77
2021/05/27 02:53:19;;;;;;;4.82;2.08;;;;;;;7.90;91.10;100389.63;5061182;28;20028;-77
2021/05/27 02:55:45;;;;;;;8.85;2.13;;;;;;;8.00;92.83;100382.59;5060363;28;20031;-79
2021/05/27 02:58:10;;;;;;;7.15;2.53;;;;;;;7.94;92.47;100376.56;5077967;28;20444;-79
2021/05/27 03:00:36;;;;;;;4.82;2.15;;;;;;;8.01;91.05;100379.13;5043021;28;20032;-81
2021/05/27 03:03:01;;;;;;;8.27;2.40;;;;;;;7.95;90.95;100380.06;5076297;28;20021;-78
2021/05/27 03:05:26;;;;;;;4.93;1.90;;;;;;;7.77;90.53;100388.88;5058469;28;20080;-78
2021/05/27 03:07:52;;;;;;;4.95;2.03;;;;;;;7.80;92.27;100386.28;5075069;28;20420;-78
2021/05/27 03:10:17;;;;;;;4.30;1.60;;;;;;;7.86;91.79;100388.78;5076094;28;20179;-78
2021/05/27 03:12:43;;;;;;;3.40;1.52;;;;;;;7.73;90.25;100384.59;5058774;28;20024;-78
2021/05/27 03:15:08;;;;;;;3.03;1.25;;;;;;;7.77;91.30;100386.28;5057814;28;20024;-77
2021/05/27 03:17:34;;;;;;;3.50;1.35;;;;;;;7.81;90.64;100382.78;5075418;28;20083;-79
2021/05/27 03:19:59;;;;;;;1.33;1.00;;;;;;;7.81;90.85;100374.97;5056880;28;20031;-77
2021/05/27 03:22:24;;;;;;;3.42;1.00;;;;;;;7.81;90.75;100385.38;5041709;28;20028;-76
2021/05/27 03:24:50;;;;;;;2.38;1.02;;;;;;;7.79;91.23;100384.53;5058028;28;20047;-79
2021/05/27 03:27:15;;;;;;;2.25;0.93;;;;;;;7.86;91.39;100381.00;5040554;28;20020;-77
2021/05/27 03:29:41;;;;;;;2.97;1.30;;;;;;;7.78;91.63;100388.00;5056809;28;20031;-76
2021/05/27 03:32:06;;;;;;;1.85;1.08;;;;;;;7.76;90.89;100379.38;5059835;28;20056;-76
2021/05/27 03:34:32;;;;;;;2.83;1.20;;;;;;;7.77;90.75;100387.16;5058032;28;20028;-78
2021/05/27 03:36:57;;;;;;;3.58;1.33;;;;;;;7.88;91.28;100389.66;5057657;28;20470;-76
2021/05/27 03:39:22;;;;;;;3.22;1.13;;;;;;;7.83;90.78;100386.22;5040230;28;20020;-78
2021/05/27 03:41:48;;;;;;;3.28;1.35;;;;;;;7.79;91.99;100387.13;5059542;28;20025;-78
2021/05/27 03:44:13;;;;;;;5.78;1.73;;;;;;;7.63;90.50;100389.00;5060095;28;20035;-76
2021/05/27 03:46:38;;;;;;;1.40;1.30;;;;;;;7.76;92.32;100400.19;5043773;28;20012;-77
2021/05/27 03:49:05;;;;;;;5.22;1.40;;;;;;;7.69;90.69;100382.88;5076933;28;20025;-77
2021/05/27 03:51:30;;;;;;;6.95;1.50;;;;;;;7.78;90.87;100385.41;5058625;28;20399;-77
2021/05/27 03:53:55;;;;;;;3.08;1.30;;;;;;;7.69;90.75;100393.28;5061633;28;20043;-76
2021/05/27 03:56:21;;;;;;;4.43;1.55;;;;;;;7.65;90.26;100389.00;5044320;28;20119;-77
2021/05/27 04:01:32;;;;;;;5.90;1.30;;;;;;;7.71;90.97;100396.75;5066405;28;20031;-80
2021/05/27 04:09:26;;;;;;;2.70;1.30;;;;;;;7.69;90.68;100394.16;5076405;28;20059;-78
2021/05/27 04:12:43;;;;;;;3.58;1.45;;;;;;;7.81;90.68;100389.72;5062655;28;20352;-78
2021/05/27 04:14:36;;;;;;;;;;;;;;;7.76;91.57;100394.97;5064081;28;20087;-79
2021/05/27 04:17:01;;;;;;;2.83;1.20;;;;;;;7.79;90.30;100400.13;5059592;28;19951;-77
2021/05/27 04:19:27;;;;;;;1.67;1.30;;;;;;;7.68;89.95;100395.03;5077576;28;20435;-79
2021/05/27 04:21:52;;;;;;;1.73;1.40;;;;;;;7.72;91.56;100398.47;5061586;28;20355;-79
2021/05/27 04:24:17;;;;;;;2.45;1.20;;;;;;;7.73;90.98;100400.19;5045296;28;20065;-80
2021/05/27 04:26:43;;;;;;;2.92;1.10;;;;;;;7.79;90.02;100403.59;5060818;28;20100;-78
2021/05/27 04:29:08;;;;;;;1.08;1.05;;;;;;;7.74;90.39;100401.91;5078870;28;20027;-80
2021/05/27 04:31:33;;;;;;;1.60;1.10;;;;;;;7.68;89.86;100402.84;5042821;28;20374;-81
2021/05/27 04:33:58;;;;;;;2.08;1.02;;;;;;;7.71;90.32;100404.56;5043549;28;20032;-77
2021/05/27 04:36:24;;;;;;;3.22;1.33;;;;;;;7.79;91.25;100406.19;5060344;28;20097;-82
2021/05/27 04:38:50;;;;;;;1.73;1.00;;;;;;;7.88;90.46;100405.25;5059201;28;20028;-83
2021/05/27 04:41:17;;;;;;;2.58;1.50;;;;;;;7.93;90.52;100406.09;5060795;28;20020;-78
2021/05/27 04:43:42;;;;;;;6.00;1.25;;;;;;;7.91;90.77;100399.16;5058194;28;20048;-81
2021/05/27 04:46:08;;;;;;;3.97;2.20;;;;;;;7.81;90.21;100400.97;5077368;28;20024;-78
2021/05/27 04:48:34;;;;;;;1.80;0.98;;;;;;;7.97;90.96;100408.66;5059208;28;20031;-78
2021/05/27 04:50:59;;;;;;;2.10;1.10;;;;;;;7.98;90.98;100403.44;5059559;28;20024;-79
2021/05/27 04:53:25;;;;;;;4.00;1.38;;;;;;;7.91;89.79;100409.56;5059806;28;20035;-80
2021/05/27 04:55:52;;;;;;;3.45;1.35;;;;;;;7.97;90.01;100409.50;5058468;28;20036;-79
2021/05/27 04:58:18;;;;;;;5.50;1.98;;;;;;;8.07;90.71;100416.34;5058353;28;20107;-82
2021/05/27 05:00:43;;;;;;;3.75;1.70;;;;;;;8.03;89.33;100411.16;5062319;28;20060;-82
2021/05/27 05:03:08;;;;;;;1.40;1.30;;;;;;;7.95;90.51;100412.13;5077217;28;20025;-78
2021/05/27 05:05:35;;;;;;;1.92;1.30;;;;;;;8.04;90.09;100412.91;5042211;28;20017;-76
2021/05/27 05:08:01;;;;;;;3.45;1.52;;;;;;;8.03;90.68;100408.56;5058582;28;20048;-80
2021/05/27 05:10:28;;;;;;;5.90;1.90;;;;;;;7.99;89.97;100417.28;5076115;28;20032;-76
2021/05/27 05:12:54;;;;;;;5.20;1.63;;;;;;;7.99;90.41;100427.69;5078228;28;20471;-79
2021/05/27 05:15:21;;;;;;;4.68;2.00;;;;;;;8.05;90.28;100430.25;5059993;28;20051;-80
2021/05/27 05:17:56;;;;;;;6.75;1.98;;;;;;;8.10;89.87;100431.06;5043041;28;20207;-77
2021/05/27 05:20:24;;;;;;;4.97;1.95;;;;;;;8.17;90.21;100421.47;5077047;28;20086;-81
2021/05/27 05:22:49;;;;;;;5.78;2.00;;;;;;;8.16;90.09;100419.72;5058637;28;20396;-82
2021/05/27 05:25:16;;;;;;;5.05;1.70;;;;;;;8.16;89.62;100428.38;5058240;28;20020;-78
2021/05/27 05:27:41;;;;;;;8.23;1.75;;;;;;;8.30;89.28;100428.22;5059958;28;20167;-79
2021/05/27 05:30:07;;;;;;;5.03;1.40;;;;;;;8.42;89.49;100435.03;5076425;28;20067;-80
2021/05/27 05:32:33;;;;;;;2.03;1.33;;;;;;;8.35;89.48;100438.59;5059336;28;20132;-82
2021/05/27 05:35:02;;;;;;;4.18;1.63;;;;;;;8.34;89.16;100434.28;5058519;28;20092;-80
2021/05/27 05:37:27;;;;;;;5.18;1.85;;;;;;;8.36;88.66;100440.34;5075676;28;20024;-81
2021/05/27 05:39:53;;;;;;;2.90;1.63;;;;;;;8.32;89.27;100446.41;5057458;28;20028;-79
2021/05/27 05:42:18;;;;;;;5.00;1.63;;;;;;;8.32;89.76;100449.03;5040914;28;20031;-77
2021/05/27 05:44:43;;;;;;;5.13;1.90;;;;;;;8.41;89.66;100443.72;5059278;28;20487;-80
2021/05/27 05:47:09;;;;;;;7.05;1.90;;;;;;;8.33;89.42;100459.44;5060551;28;20308;-80
2021/05/27 05:49:34;;;;;;;7.40;1.95;;;;;;;8.40;89.39;100452.44;5065115;28;20050;-79
2021/05/27 05:52:00;;;;;;;4.20;1.50;;;;;;;8.43;88.96;100449.78;5062099;28;20021;-78
2021/05/27 05:54:25;;;;;;;4.18;1.60;;;;;;;8.22;89.87;100459.56;5078937;28;20076;-79
2021/05/27 05:56:50;;;;;;;4.65;2.00;;;;;;;8.22;90.47;100462.16;5043334;28;20024;-79
2021/05/27 05:59:15;;;;;;;1.45;1.35;;;;;;;8.21;90.00;100463.03;5045150;28;20170;-80
2021/05/27 06:01:41;;;;;;;3.30;1.38;;;;;;;8.33;90.49;100461.16;5060777;28;20412;-78
2021/05/27 06:04:06;;;;;;;3.05;1.42;;;;;;;8.24;90.63;100465.59;5045256;28;20039;-83
2021/05/27 06:06:31;;;;;;;3.20;1.35;;;;;;;8.24;90.95;100467.34;5044178;28;20032;-80
2021/05/27 06:08:57;;;;;;;2.22;1.23;;;;;;;8.17;91.08;100474.34;5061576;28;20044;-80
2021/05/27 06:11:23;;;;;;;3.85;1.63;;;;;;;8.22;91.48;100482.97;5062620;28;20416;-79
2021/05/27 06:13:48;;;;;;;2.40;1.40;;;;;;;8.19;91.57;100480.38;5080552;28;20051;-79
2021/05/27 06:16:14;;;;;;;2.55;1.27;;;;;;;8.19;91.29;100489.94;5063456;28;20083;-81
2021/05/27 06:18:39;;;;;;;1.92;1.35;;;;;;;8.25;91.13;100482.94;5046424;28;20024;-81
2021/05/27 06:21:04;;;;;;;4.97;1.65;;;;;;;8.28;91.29;100495.06;5062830;28;20024;-81
2021/05/27 06:23:32;;;;;;;3.75;1.25;;;;;;;8.36;90.90;100490.63;5048416;28;20433;-79
2021/05/27 06:25:58;;;;;;;0.95;0.90;;;;;;;8.36;90.71;100498.44;5064322;28;20115;-79
2021/05/27 06:28:23;;;;;;;1.30;0.98;;;;;;;8.39;91.26;100500.16;5061984;28;20142;-81
2021/05/27 06:30:48;;;;;;;1.80;1.27;;;;;;;8.44;91.43;100499.22;5061578;28;20044;-80
2021/05/27 06:33:14;;;;;;;1.33;0.88;;;;;;;8.56;90.91;100503.47;5056982;28;20439;-80
2021/05/27 06:35:39;;;;;;;0.98;0.98;;;;;;;8.55;90.67;100509.56;5061957;28;20107;-82
2021/05/27 06:38:04;;;;;;;3.50;2.35;;;;;;;8.87;90.07;100510.91;5050222;28;20047;-81
2021/05/27 06:40:31;;;;;;;1.23;0.68;;;;;;;9.33;88.39;100516.44;5042642;28;20029;-81
2021/05/27 06:42:56;;;;;;;2.70;1.23;;;;;;;9.26;88.54;100516.50;5058555;28;20039;-80
2021/05/27 06:45:23;;;;;;;0.88;0.70;;;;;;;9.54;87.86;100518.72;5040702;28;20389;-78
2021/05/27 06:47:49;;;;;;;0.73;0.60;;;;;;;9.46;88.32;100517.97;5044581;28;20043;-79
2021/05/27 06:50:31;;;;;;;0.70;0.70;;;;;;;9.42;88.31;100521.50;5039208;28;20629;-80
2021/05/27 06:52:57;;;;;;;0.82;0.77;;;;;;;9.34;87.89;100533.78;5070894;28;20059;-81
2021/05/27 06:55:23;;;;;;;3.10;1.00;;;;;;;9.24;88.17;100531.31;5055984;28;20021;-77
2021/05/27 06:57:48;;;;;;;1.85;0.90;;;;;;;9.18;88.89;100533.16;5059862;28;20103;-81
2021/05/27 07:00:19;;;;;;;3.20;0.70;;;;;;;9.22;88.78;100535.69;5059288;28;20024;-81
2021/05/27 07:02:44;;;;;;;0.73;0.65;;;;;;;9.19;88.58;100540.94;5079395;28;20076;-78
2021/05/27 07:05:10;;;;;;;0.88;0.65;;;;;;;9.33;88.72;100532.06;5057273;28;20048;-78
2021/05/27 07:07:35;;;;;;;1.08;0.65;;;;;;;9.30;88.54;100533.81;5046504;28;20479;-81
2021/05/27 07:10:01;;;;;;;2.63;1.02;;;;;;;9.50;87.71;100529.22;5052032;28;20028;-79
2021/05/27 07:12:26;;;;;;;1.00;0.73;;;;;;;9.45;87.70;100534.50;5048168;28;20417;-79
2021/05/27 07:14:51;;;;;;;1.58;0.73;;;;;;;9.37;88.06;100538.97;5034657;28;20321;-80
2021/05/27 07:17:16;;;;;;;0.60;0.60;;;;;;;9.64;87.09;100541.19;5053290;28;20025;-77
2021/05/27 07:19:42;;;;;;;1.60;0.90;;;;;;;9.69;87.28;100533.28;5058623;28;20021;-79
2021/05/27 07:22:07;;;;;;;1.30;0.60;;;;;;;9.53;87.15;100535.25;5043094;28;20463;-81
2021/05/27 07:24:32;;;;;;;2.92;1.05;;;;;;;9.63;87.46;100547.25;5057333;28;20029;-80
2021/05/27 07:26:58;;;;;;;1.00;0.52;;;;;;;9.94;86.93;100546.81;5079649;28;20050;-80
2021/05/27 07:29:23;;;;;;;3.45;0.70;;;;;;;10.16;85.67;100546.47;5062151;28;20025;-79
2021/05/27 07:31:51;;;;;;;0.63;0.63;;;;;;;10.75;83.01;100550.66;5077741;28;20107;-76
2021/05/27 07:34:19;;;;;;;0.68;0.68;;;;;;;10.52;84.26;100557.16;5077912;28;20475;-80
2021/05/27 07:36:45;;;;;;;1.33;0.85;;;;;;;10.17;85.28;100558.63;5060850;28;20020;-79
2021/05/27 07:39:10;;;;;;;3.50;0.77;;;;;;;10.34;85.96;100566.16;5055734;28;20492;-79
2021/05/27 07:41:35;;;;;;;1.55;0.93;;;;;;;10.80;83.46;100569.72;5040537;28;20379;-81
2021/05/27 07:44:01;;;;;;;2.15;0.70;;;;;;;10.36;84.01;100563.56;5049087;28;20090;-81
2021/05/27 07:46:26;;;;;;;1.45;0.70;;;;;;;10.23;83.86;100571.56;5055587;28;20021;-80
2021/05/27 07:48:51;;;;;;;2.58;0.90;;;;;;;10.44;84.13;100566.88;5074405;28;20023;-81
2021/05/27 07:51:17;;;;;;;2.30;0.80;;;;;;;11.24;81.46;100567.13;5054628;28;20085;-80
2021/05/27 07:53:42;;;;;;;1.42;0.50;;;;;;;11.67;78.40;100574.88;5061403;28;20021;-79
2021/05/27 07:56:07;;;;;;;2.25;0.88;;;;;;;11.60;78.96;100565.47;5080920;28;20016;-82
2021/05/27 07:58:35;;;;;;;1.70;0.75;;;;;;;11.89;78.42;100574.38;5050676;28;20024;-80
2021/05/27 08:01:00;;;;;;;1.65;0.80;;;;;;;11.47;78.49;100585.78;5050357;28;20112;-79
2021/05/27 08:03:25;;;;;;;1.25;0.82;;;;;;;11.01;80.49;100585.88;5062907;28;20102;-79
2021/05/27 08:05:51;;;;;;;2.58;1.42;;;;;;;10.95;81.78;100590.34;5042819;28;20508;-79
2021/05/27 08:08:16;;;;;;;1.70;0.77;;;;;;;10.44;83.45;100588.66;5057763;28;20020;-80
2021/05/27 08:10:41;;;;;;;1.75;1.00;;;;;;;10.36;84.50;100594.88;5065048;28;20025;-80
2021/05/27 08:13:06;;;;;;;1.45;0.95;;;;;;;10.37;86.03;100605.31;5059138;28;20016;-80
2021/05/27 08:15:32;;;;;;;2.53;0.80;;;;;;;10.24;83.92;100601.13;5054732;28;20048;-79
2021/05/27 08:17:57;;;;;;;2.95;0.98;;;;;;;10.32;84.62;100600.13;5061516;28;20029;-79
2021/05/27 08:20:22;;;;;;;3.55;0.93;;;;;;;10.83;82.47;100598.41;5063954;28;20031;-78
2021/05/27 08:22:48;;;;;;;2.03;0.98;;;;;;;10.61;82.18;100595.34;5061598;28;20032;-78
2021/05/27 08:25:13;;;;;;;2.90;0.90;;;;;;;10.22;83.35;100601.16;5044680;28;20016;-80
2021/05/27 08:27:38;;;;;;;1.05;0.90;;;;;;;10.89;83.12;100602.66;5027884;28;20025;-79
2021/05/27 08:30:05;;;;;;;1.60;0.70;;;;;;;11.29;80.23;100605.34;5060975;28;20012;-79
2021/05/27 08:32:30;;;;;;;2.05;0.52;;;;;;;11.65;77.05;100594.13;5064643;28;20092;-81
2021/05/27 08:34:56;;;;;;;3.38;0.95;;;;;;;11.07;79.65;100602.31;5052300;28;20099;-79
2021/05/27 08:37:21;;;;;;;1.50;0.70;;;;;;;11.43;78.87;100609.44;5059196;28;20067;-78
2021/05/27 08:39:47;;;;;;;1.00;0.77;;;;;;;10.57;80.65;100618.03;5063445;28;20099;-78
2021/05/27 08:42:13;;;;;;;2.08;0.88;;;;;;;10.52;82.86;100619.84;5052946;28;20021;-78
2021/05/27 08:44:41;;;;;;;1.20;0.80;;;;;;;10.53;82.71;100628.56;5040843;28;20039;-77
2021/05/27 08:47:08;;;;;;;2.60;1.00;;;;;;;10.36;84.50;100631.44;5060246;28;20391;-79
2021/05/27 08:49:35;;;;;;;1.10;0.70;;;;;;;10.44;82.32;100634.78;5057198;28;20032;-82
2021/05/27 08:52:00;;;;;;;1.92;0.60;;;;;;;10.48;83.17;100636.47;5058909;28;20375;-79
2021/05/27 08:54:25;;;;;;;2.10;1.10;;;;;;;10.30;84.29;100641.06;5061200;28;20020;-79
2021/05/27 08:56:51;;;;;;;2.63;0.73;;;;;;;10.74;82.77;100643.84;5062919;28;20047;-77
2021/05/27 08:59:16;;;;;;;1.73;1.10;;;;;;;10.76;81.91;100643.84;5042865;28;20024;-79
2021/05/27 09:02:10;;;;;;;3.75;0.75;;;;;;;11.17;80.26;100636.97;5047268;28;20036;-79
2021/05/27 09:04:40;;;;;;;3.55;1.20;;;;;;;10.75;81.38;100649.94;5077551;28;20017;-79
2021/05/27 09:07:11;;;;;;;1.08;0.82;;;;;;;10.65;81.56;100657.94;5065140;28;20016;-83
2021/05/27 09:10:05;;;;;;;1.92;0.70;;;;;;;10.73;81.57;100646.47;5040543;28;20116;-80
2021/05/27 09:12:31;;;;;;;2.03;0.80;;;;;;;10.93;80.27;100659.19;5049447;28;20092;-79
2021/05/27 09:14:58;;;;;;;3.70;0.60;;;;;;;10.99;79.99;100665.19;5050878;28;20107;-78
2021/05/27 09:17:23;;;;;;;1.15;0.75;;;;;;;11.13;79.66;100658.84;5052255;28;20031;-79
2021/05/27 09:20:12;;;;;;;0.93;0.50;;;;;;;10.90;80.75;100673.19;5038397;28;20033;-77
2021/05/27 09:22:37;;;;;;;1.33;1.23;;;;;;;10.97;80.42;100680.00;5047810;28;20317;-78
2021/05/27 09:25:03;;;;;;;1.08;0.60;;;;;;;10.85;80.49;100668.94;5073426;28;20020;-78
2021/05/27 09:27:45;;;;;;;0.80;0.60;;;;;;;11.01;81.09;100666.91;5052283;28;20140;-79
2021/05/27 09:30:12;;;;;;;1.58;0.68;;;;;;;11.53;78.25;100671.09;5036148;28;20564;-80
2021/05/27 09:32:38;;;;;;;0.70;0.40;;;;;;;11.50;79.23;100671.19;5066648;28;20029;-80
2021/05/27 09:35:09;;;;;;;1.30;0.70;;;;;;;11.83;78.51;100679.19;5059482;28;20035;-78
2021/05/27 09:37:36;;;;;;;1.25;0.90;;;;;;;11.73;79.27;100688.16;5036746;28;20036;-78
2021/05/27 09:40:05;;;;;;;1.60;0.45;;;;;;;11.70;79.41;100681.22;5078159;28;20025;-79
2021/05/27 09:42:47;;;;;;;1.38;0.60;;;;;;;11.34;80.99;100691.53;5075304;28;20048;-79
2021/05/27 09:45:19;;;;;;;0.65;0.40;;;;;;;11.01;80.58;100693.03;5046326;28;20020;-77
2021/05/27 09:47:44;;;;;;;2.95;0.40;;;;;;;11.22;80.84;100695.25;5039449;28;20104;-78
2021/05/27 09:50:10;;;;;;;0.40;0.40;;;;;;;11.38;79.95;100703.66;5065081;28;20060;-79
2021/05/27 09:52:40;;;;;;;0.50;0.40;;;;;;;11.22;80.29;100703.09;5039388;28;20021;-77
2021/05/27 09:55:11;;;;;;;2.42;0.40;;;;;;;11.17;81.10;100715.41;5023377;28;20017;-78
2021/05/27 09:57:42;;;;;;;2.13;0.70;;;;;;;11.15;81.99;100722.38;5028451;28;20456;-81
2021/05/27 10:00:22;;;;;;;1.23;0.57;;;;;;;11.09;79.50;100725.97;5052890;28;20032;-78
2021/05/27 10:04:09;;;;;;;1.67;0.60;;;;;;;11.21;81.07;100727.53;5063586;28;20024;-78
2021/05/27 10:06:55;;;;;;;2.05;0.90;;;;;;;10.93;82.26;100733.22;5000352;28;20083;-80
2021/05/27 10:09:29;;;;;;;2.30;1.30;;;;;;;10.93;83.33;100733.22;4973589;28;20062;-79
2021/05/27 10:12:03;;;;;;;1.33;0.85;;;;;;;10.88;82.70;100732.47;5033468;28;20403;-80
2021/05/27 10:15:14;;;;;;;2.83;0.88;;;;;;;11.22;83.85;100744.94;5041047;28;20036;-80
2021/05/27 10:18:06;;;;;;;1.90;0.70;;;;;;;11.10;84.68;100746.00;5060133;28;20044;-79
2021/05/27 10:20:35;;;;;;;3.47;1.00;;;;;;;10.92;85.27;100746.31;5058495;28;20123;-79
2021/05/27 10:23:58;;;;;;;2.63;1.02;;;;;;;10.70;87.61;100759.72;5023959;28;20037;-83
2021/05/27 10:26:38;;;;;;;4.85;1.10;;;;;;;10.49;89.15;100769.63;4993107;28;20034;-80
2021/05/27 10:29:23;;;;;;;2.90;1.17;;;;;;;10.44;89.05;100766.25;5054130;28;20052;-81
2021/05/27 10:31:49;;;;;;;5.28;1.10;;;;;;;10.43;88.74;100766.22;5040019;28;20028;-81
2021/05/27 10:34:59;;;;;;;2.08;0.88;;;;;;;10.34;87.95;100775.03;5035788;28;20096;-80
2021/05/27 10:37:37;;;;;;;1.10;1.00;;;;;;;10.19;88.57;100776.13;5060115;28;20130;-78
2021/05/27 10:40:22;;;;;;;2.67;1.10;;;;;;;10.52;88.56;100776.56;5064391;28;20086;-79
2021/05/27 10:43:13;;;;;;;2.92;1.13;;;;;;;10.43;87.43;100779.28;5048347;28;20095;-77
2021/05/27 10:46:19;;;;;;;2.50;0.93;;;;;;;10.60;87.31;100776.44;5072723;28;20029;-79
2021/05/27 10:48:54;;;;;;;4.75;1.33;;;;;;;10.40;85.85;100774.13;5075224;28;20028;-77
2021/05/27 10:51:34;;;;;;;;;;;;;;;10.43;87.42;100779.28;5046394;28;20021;-79
2021/05/27 10:54:17;;;;;;;;;;;;;;;;;;;;;
2021/05/27 10:57:12;;;;;;;1.98;1.88;;;;;;;11.18;88.08;100782.50;5047679;28;20612;-80
2021/05/27 11:00:12;;;;;;;;;;;;;;;12.00;85.28;100786.22;5070384;28;20021;-79
2021/05/27 11:03:34;;;;;;;4.47;1.25;;;;;;;11.82;82.47;100788.28;5072170;28;19913;-79
2021/05/27 11:06:36;;;;;;;2.47;1.42;;;;;;;11.36;84.07;100806.56;5021870;28;20029;-79
2021/05/27 11:09:24;;;;;;;3.22;0.77;;;;;;;10.89;87.36;100809.94;5022195;28;20038;-77
2021/05/27 11:12:18;;;;;;;5.15;1.60;;;;;;;10.89;88.42;100809.94;5069137;28;20028;-82
2021/05/27 11:15:14;;;;;;;1.95;1.35;;;;;;;10.95;87.20;100815.09;5081818;28;20432;-78
2021/05/27 11:20:35;;;;;;;2.63;1.40;;;;;;;11.06;86.20;100820.16;5065362;28;19920;-76
2021/05/27 11:23:38;;;;;;;1.73;1.27;;;;;;;11.37;83.85;100816.16;5049092;28;20059;-78
2021/05/27 11:26:26;;;;;;;4.50;1.95;;;;;;;11.36;84.45;100819.66;5055937;28;20340;-76
2021/05/27 11:29:49;;;;;;;;;;;;;;;;;;;;;
2021/05/27 11:33:10;;;;;;;;;;;;;;;;;;;;;
2021/05/27 11:35:57;;;;;;;1.75;0.95;;;;;;;17.10;63.72;100817.06;5072258;28;20428;-76
2021/05/27 11:38:51;;;;;;;3.47;0.98;;;;;;;17.12;63.36;100817.88;5049155;28;20088;-76
2021/05/27 11:41:58;;;;;;;;;;;;;;;;;;;;;
2021/05/27 11:44:23;;;;;;;1.40;0.70;;;;;;;14.11;74.24;100837.03;5048637;28;20039;-80
2021/05/27 11:46:53;;;;;;;2.45;1.30;;;;;;;14.83;70.24;100850.69;5041383;28;20060;-79
2021/05/27 11:51:55;;;;;;;2.53;1.00;;;;;;;13.38;75.55;100848.63;5094183;28;20051;-79
2021/05/27 11:54:20;;;;;;;2.50;0.80;;;;;;;12.05;77.92;100862.03;5079191;28;20054;-79
2021/05/27 11:56:48;;;;;;;3.03;1.10;;;;;;;11.80;79.95;100860.69;5062140;28;20028;-79
2021/05/27 11:59:19;;;;;;;5.85;0.95;;;;;;;11.81;80.28;100869.44;5096634;28;20066;-79
2021/05/27 12:01:52;;;;;;;1.77;0.68;;;;;;;11.84;79.49;100870.22;5042473;28;20021;-77